createdAt,value
2023-03-07T00:01:36.773Z,2.82
2023-03-07T00:04:07.903Z,2.87
2023-03-07T00:06:40.674Z,2.80
2023-03-07T00:09:10.955Z,3.00
2023-03-07T00:11:41.421Z,3.05
2023-03-07T00:14:11.975Z,3.12
2023-03-07T00:16:42.346Z,3.01
2023-03-07T00:19:12.810Z,3.01
2023-03-07T00:21:45.741Z,3.05
2023-03-07T00:24:16.064Z,3.02
2023-03-07T00:26:46.402Z,3.08
2023-03-07T00:29:16.769Z,3.15
2023-03-07T00:31:47.160Z,3.11
2023-03-07T00:34:17.624Z,3.11
2023-03-07T00:36:50.656Z,3.06
2023-03-07T00:39:21.046Z,3.02
2023-03-07T00:41:51.323Z,3.09
2023-03-07T00:44:22.654Z,3.05
2023-03-07T00:46:52.728Z,3.05
2023-03-07T00:49:23.099Z,2.92
2023-03-07T00:51:56.245Z,2.99
2023-03-07T00:54:26.967Z,2.89
2023-03-07T00:56:57.647Z,2.94
2023-03-07T00:59:28.150Z,2.95
2023-03-07T01:01:58.512Z,2.86
2023-03-07T01:04:28.923Z,2.88
2023-03-07T01:07:01.954Z,2.86
2023-03-07T01:09:32.306Z,2.81
2023-03-07T01:12:03.157Z,2.86
2023-03-07T01:14:33.544Z,2.87
2023-03-07T01:17:04.092Z,2.95
2023-03-07T01:19:34.389Z,2.98
2023-03-07T01:22:07.557Z,3.01
2023-03-07T01:24:37.867Z,3.03
2023-03-07T01:27:08.783Z,3.04
2023-03-07T01:29:39.399Z,2.97
2023-03-07T01:32:10.170Z,2.99
2023-03-07T01:34:40.888Z,2.92
2023-03-07T01:37:13.876Z,2.92
2023-03-07T01:39:44.210Z,2.88
2023-03-07T01:42:18.935Z,2.85
2023-03-07T01:45:06.287Z,2.78
2023-03-07T01:47:44.252Z,2.81
2023-03-07T01:50:18.327Z,2.75
2023-03-07T01:52:56.391Z,2.66
2023-03-07T01:55:32.243Z,2.62
2023-03-07T01:58:17.211Z,2.71
2023-03-07T02:00:48.674Z,2.61
2023-03-07T02:03:29.526Z,2.59
2023-03-07T02:06:03.102Z,2.46
2023-03-07T02:08:38.606Z,2.49
2023-03-07T02:11:10.048Z,2.54
2023-03-07T02:13:40.593Z,2.56
2023-03-07T02:16:11.806Z,2.62
2023-03-07T02:18:49.994Z,2.64
2023-03-07T02:21:36.119Z,2.61
2023-03-07T02:24:20.608Z,2.54
2023-03-07T02:26:56.191Z,2.51
2023-03-07T02:29:27.341Z,2.43
2023-03-07T02:31:57.719Z,2.46
2023-03-07T02:34:30.887Z,2.51
2023-03-07T02:37:15.665Z,2.51
2023-03-07T02:39:49.335Z,2.51
2023-03-07T02:42:26.841Z,2.49
2023-03-07T02:45:10.392Z,2.54
2023-03-07T02:47:42.937Z,2.48
2023-03-07T02:50:17.210Z,2.45
2023-03-07T02:52:51.196Z,2.52
2023-03-07T02:55:21.847Z,2.50
2023-03-07T02:58:02.358Z,2.44
2023-03-07T03:00:32.904Z,2.47
2023-03-07T03:03:03.492Z,2.54
2023-03-07T03:05:33.950Z,2.59
2023-03-07T03:08:04.385Z,2.58
2023-03-07T03:10:34.672Z,2.51
2023-03-07T03:13:08.002Z,2.39
2023-03-07T03:15:38.453Z,2.39
2023-03-07T03:18:08.821Z,2.38
2023-03-07T03:20:42.277Z,2.44
2023-03-07T03:23:12.603Z,2.41
2023-03-07T03:25:42.978Z,2.41
2023-03-07T03:28:16.272Z,2.51
2023-03-07T03:30:46.597Z,2.47
2023-03-07T03:33:16.958Z,2.56
2023-03-07T03:35:49.248Z,2.57
2023-03-07T03:38:20.029Z,2.56
2023-03-07T03:40:50.842Z,2.57
2023-03-07T03:43:24.915Z,2.57
2023-03-07T03:46:01.436Z,2.56
2023-03-07T03:48:32.595Z,2.60
2023-03-07T03:51:08.291Z,2.51
2023-03-07T03:53:41.117Z,2.51
2023-03-07T03:56:14.699Z,2.57
2023-03-07T03:58:51.631Z,2.51
2023-03-07T04:01:24.429Z,2.45
2023-03-07T04:03:56.874Z,2.51
2023-03-07T04:06:29.231Z,2.52
2023-03-07T04:09:00.533Z,2.45
2023-03-07T04:11:31.004Z,2.51
2023-03-07T04:14:04.092Z,2.46
2023-03-07T04:16:34.460Z,2.51
2023-03-07T04:19:04.913Z,2.50
2023-03-07T04:21:35.493Z,2.46
2023-03-07T04:24:06.358Z,2.47
2023-03-07T04:26:37.325Z,2.44
2023-03-07T04:29:10.283Z,2.39
2023-03-07T04:32:03.337Z,2.39
2023-03-07T04:34:33.989Z,2.36
2023-03-07T04:37:04.767Z,2.39
2023-03-07T04:39:35.402Z,2.46
2023-03-07T04:42:06.693Z,2.50
2023-03-07T04:44:42.331Z,2.54
2023-03-07T04:47:12.726Z,2.54
2023-03-07T04:49:43.056Z,2.49
2023-03-07T04:52:13.684Z,2.60
2023-03-07T04:54:45.219Z,2.57
2023-03-07T04:57:15.532Z,2.51
2023-03-07T04:59:49.138Z,2.45
2023-03-07T05:02:19.715Z,2.43
2023-03-07T05:04:50.678Z,2.44
2023-03-07T05:07:21.145Z,2.50
2023-03-07T05:09:53.188Z,2.53
2023-03-07T05:12:23.817Z,2.59
2023-03-07T05:14:57.127Z,2.60
2023-03-07T05:17:27.427Z,2.60
2023-03-07T05:19:57.774Z,2.57
2023-03-07T05:22:28.844Z,2.54
2023-03-07T05:25:00.050Z,2.52
2023-03-07T05:27:30.709Z,2.52
2023-03-07T05:30:03.881Z,2.57
2023-03-07T05:32:34.241Z,2.61
2023-03-07T05:35:05.110Z,2.74
2023-03-07T05:37:35.781Z,2.74
2023-03-07T05:40:09.143Z,2.73
2023-03-07T05:42:44.751Z,2.66
2023-03-07T05:45:22.109Z,2.70
2023-03-07T05:47:53.173Z,2.79
2023-03-07T05:50:24.129Z,2.89
2023-03-07T05:52:55.128Z,2.85
2023-03-07T05:55:28.199Z,2.82
2023-03-07T05:57:59.867Z,2.77
2023-03-07T06:00:34.426Z,2.77
2023-03-07T06:03:05.948Z,2.83
2023-03-07T06:05:37.200Z,2.92
2023-03-07T06:08:08.602Z,2.96
2023-03-07T06:10:40.370Z,2.96
2023-03-07T06:13:21.823Z,3.02
2023-03-07T06:15:57.106Z,2.99
2023-03-07T06:18:29.182Z,2.96
2023-03-07T06:21:05.100Z,3.07
2023-03-07T06:23:40.192Z,3.06
2023-03-07T06:26:15.613Z,3.10
2023-03-07T06:28:49.269Z,3.09
2023-03-07T06:31:23.660Z,3.18
2023-03-07T06:33:57.730Z,3.17
2023-03-07T06:36:31.993Z,3.18
2023-03-07T06:39:05.107Z,3.14
2023-03-07T06:41:37.140Z,3.21
2023-03-07T06:44:08.676Z,3.24
2023-03-07T06:46:41.636Z,3.27
2023-03-07T06:49:16.843Z,3.28
2023-03-07T06:51:50.098Z,3.25
2023-03-07T06:54:20.944Z,3.21
2023-03-07T06:56:51.733Z,3.27
2023-03-07T06:59:25.644Z,3.15
2023-03-07T07:01:58.921Z,3.11
2023-03-07T07:04:29.468Z,3.07
2023-03-07T07:07:00.574Z,3.06
2023-03-07T07:09:34.308Z,3.16
2023-03-07T07:12:06.074Z,3.11
2023-03-07T07:14:38.236Z,3.21
2023-03-07T07:17:11.405Z,3.27
2023-03-07T07:19:41.755Z,3.18
2023-03-07T07:22:12.357Z,3.30
2023-03-07T07:24:43.026Z,3.20
2023-03-07T07:27:17.076Z,3.30
2023-03-07T07:29:47.524Z,3.42
2023-03-07T07:32:21.011Z,3.35
2023-03-07T07:34:51.692Z,3.44
2023-03-07T07:37:24.045Z,3.61
2023-03-07T07:39:54.909Z,3.64
2023-03-07T07:42:25.320Z,3.71
2023-03-07T07:45:18.284Z,3.70
2023-03-07T07:47:55.097Z,3.82
2023-03-07T07:50:26.599Z,3.91
2023-03-07T07:52:57.159Z,4.01
2023-03-07T07:55:28.669Z,4.18
2023-03-07T07:57:59.002Z,4.19
2023-03-07T08:00:30.048Z,4.37
2023-03-07T08:03:03.256Z,4.55
2023-03-07T08:05:33.534Z,4.81
2023-03-07T08:08:04.044Z,5.06
2023-03-07T08:10:35.668Z,4.97
2023-03-07T08:13:06.029Z,4.89
2023-03-07T08:15:36.516Z,4.87
2023-03-07T08:18:11.090Z,4.80
2023-03-07T08:20:42.183Z,4.85
2023-03-07T08:23:12.521Z,4.98
2023-03-07T08:25:43.066Z,5.06
2023-03-07T08:28:13.538Z,4.99
2023-03-07T08:30:43.947Z,4.99
2023-03-07T08:33:16.896Z,5.03
2023-03-07T08:35:47.270Z,5.04
2023-03-07T08:38:17.599Z,4.94
2023-03-07T08:40:47.873Z,4.80
2023-03-07T08:43:18.115Z,4.92
2023-03-07T08:45:48.496Z,4.82
2023-03-07T08:48:21.444Z,4.73
2023-03-07T08:50:53.709Z,4.75
2023-03-07T08:53:25.750Z,4.77
2023-03-07T08:55:56.040Z,4.83
2023-03-07T08:58:26.891Z,4.81
2023-03-07T09:00:58.313Z,4.94
2023-03-07T09:03:31.299Z,4.89
2023-03-07T09:06:01.690Z,4.87
2023-03-07T09:08:32.218Z,5.02
2023-03-07T09:11:05.518Z,4.95
2023-03-07T09:13:43.097Z,5.12
2023-03-07T09:16:20.454Z,5.17
2023-03-07T09:18:54.112Z,5.31
2023-03-07T09:21:24.599Z,5.35
2023-03-07T09:23:54.944Z,5.35
2023-03-07T09:26:25.218Z,5.17
2023-03-07T09:28:55.739Z,5.16
2023-03-07T09:31:26.255Z,5.28
2023-03-07T09:34:00.133Z,5.31
2023-03-07T09:36:30.415Z,5.40
2023-03-07T09:39:00.794Z,5.41
2023-03-07T09:41:58.347Z,5.41
2023-03-07T09:44:44.085Z,5.55
2023-03-07T09:48:05.293Z,5.87
2023-03-07T09:50:49.369Z,6.16
2023-03-07T09:53:27.183Z,6.68
2023-03-07T09:56:10.914Z,6.79
2023-03-07T09:58:46.812Z,6.76
2023-03-07T10:01:24.470Z,6.75
2023-03-07T10:04:03.256Z,6.90
2023-03-07T10:06:41.591Z,6.97
2023-03-07T10:09:22.303Z,6.72
2023-03-07T10:12:13.380Z,6.36
2023-03-07T10:15:01.424Z,6.18
2023-03-07T10:18:00.102Z,6.46
2023-03-07T10:20:42.503Z,6.99
2023-03-07T10:23:44.230Z,6.98
2023-03-07T10:26:20.095Z,7.26
2023-03-07T10:28:51.958Z,7.83
2023-03-07T10:31:28.716Z,8.41
2023-03-07T10:33:59.258Z,8.61
2023-03-07T10:36:41.293Z,8.02
2023-03-07T10:39:28.599Z,7.96
2023-03-07T10:42:00.082Z,7.89
2023-03-07T10:44:35.941Z,8.19
2023-03-07T10:47:06.470Z,8.05
2023-03-07T10:49:45.099Z,8.61
2023-03-07T10:52:31.266Z,8.88
2023-03-07T10:55:49.120Z,8.12
2023-03-07T10:58:28.034Z,8.12
2023-03-07T11:01:20.241Z,8.49
2023-03-07T11:03:57.538Z,9.04
2023-03-07T11:06:40.162Z,9.27
2023-03-07T11:09:26.190Z,10.02
2023-03-07T11:12:00.816Z,9.18
2023-03-07T11:14:33.888Z,9.24
2023-03-07T11:17:05.688Z,9.05
2023-03-07T11:19:46.095Z,9.41
2023-03-07T11:22:33.723Z,9.75
2023-03-07T11:25:13.711Z,9.63
2023-03-07T11:27:55.300Z,10.14
2023-03-07T11:30:32.762Z,11.13
2023-03-07T11:33:15.618Z,11.21
2023-03-07T11:36:02.863Z,10.61
2023-03-07T11:38:53.464Z,10.83
2023-03-07T11:41:30.705Z,10.90
2023-03-07T11:44:18.870Z,11.23
2023-03-07T11:47:17.123Z,11.24
2023-03-07T11:49:50.145Z,11.36
2023-03-07T11:52:57.808Z,11.66
2023-03-07T11:55:36.444Z,12.36
2023-03-07T11:58:39.408Z,12.16
2023-03-07T12:01:23.316Z,11.52
2023-03-07T12:04:36.492Z,11.75
2023-03-07T12:07:21.957Z,11.08
2023-03-07T12:09:58.824Z,11.19
2023-03-07T12:12:46.095Z,11.17
2023-03-07T12:15:34.096Z,11.55
2023-03-07T12:18:37.580Z,10.89
2023-03-07T12:21:36.938Z,10.62
2023-03-07T12:24:17.017Z,10.29
2023-03-07T12:26:55.276Z,11.50
2023-03-07T12:29:39.053Z,12.57
2023-03-07T12:32:15.229Z,12.79
2023-03-07T12:34:51.205Z,11.56
2023-03-07T12:37:29.320Z,12.24
2023-03-07T12:40:05.995Z,12.41
2023-03-07T12:42:45.184Z,12.69
2023-03-07T12:45:20.154Z,12.07
2023-03-07T12:48:03.584Z,10.82
2023-03-07T12:50:43.924Z,10.45
2023-03-07T12:53:25.280Z,10.17
2023-03-07T12:56:01.478Z,10.03
2023-03-07T12:58:43.380Z,10.21
2023-03-07T13:01:18.790Z,9.91
2023-03-07T13:03:58.506Z,10.19
2023-03-07T13:06:29.828Z,10.29
2023-03-07T13:09:05.458Z,10.01
2023-03-07T13:11:38.843Z,9.63
2023-03-07T13:14:09.373Z,9.19
2023-03-07T13:16:44.168Z,8.73
2023-03-07T13:19:55.663Z,8.31
2023-03-07T13:23:00.275Z,8.07
2023-03-07T13:26:09.251Z,8.08
2023-03-07T13:28:54.141Z,8.18
2023-03-07T13:31:43.574Z,8.20
2023-03-07T13:34:52.714Z,7.92
2023-03-07T13:37:59.683Z,7.98
2023-03-07T13:40:54.983Z,7.88
2023-03-07T13:44:05.045Z,8.20
2023-03-07T13:47:01.456Z,8.26
2023-03-07T13:49:48.458Z,8.19
2023-03-07T13:52:41.234Z,7.92
2023-03-07T13:55:31.574Z,7.71
2023-03-07T13:58:18.055Z,7.76
2023-03-07T14:00:59.017Z,7.77
2023-03-07T14:03:34.851Z,7.86
2023-03-07T14:06:12.318Z,8.02
2023-03-07T14:08:43.207Z,8.08
2023-03-07T14:11:27.219Z,8.13
2023-03-07T14:14:28.296Z,8.25
2023-03-07T14:17:30.310Z,8.17
2023-03-07T14:20:11.753Z,8.34
2023-03-07T14:22:58.897Z,8.26
2023-03-07T14:25:30.664Z,8.41
2023-03-07T14:28:03.679Z,8.62
2023-03-07T14:30:36.710Z,8.62
2023-03-07T14:33:09.668Z,8.58
2023-03-07T14:35:45.564Z,8.46
2023-03-07T14:38:23.515Z,8.60
2023-03-07T14:41:21.096Z,8.51
2023-03-07T14:44:05.647Z,8.40
2023-03-07T14:46:51.737Z,8.27
2023-03-07T14:49:39.027Z,8.16
2023-03-07T14:52:28.270Z,8.16
2023-03-07T14:55:03.038Z,7.93
2023-03-07T14:57:38.763Z,7.66
2023-03-07T15:00:20.107Z,7.54
2023-03-07T15:02:51.647Z,7.48
2023-03-07T15:05:27.395Z,7.42
2023-03-07T15:07:58.326Z,7.35
2023-03-07T15:10:33.546Z,7.33
2023-03-07T15:13:13.441Z,7.33
2023-03-07T15:15:51.166Z,7.42
2023-03-07T15:18:26.340Z,7.48
2023-03-07T15:21:01.440Z,7.43
2023-03-07T15:23:32.561Z,7.35
2023-03-07T15:26:06.718Z,7.35
2023-03-07T15:28:40.477Z,7.28
2023-03-07T15:31:14.133Z,7.21
2023-03-07T15:33:45.269Z,7.23
2023-03-07T15:36:28.612Z,7.23
2023-03-07T15:39:34.754Z,7.20
2023-03-07T15:42:09.077Z,7.17
2023-03-07T15:44:39.891Z,7.23
2023-03-07T15:47:19.656Z,7.35
2023-03-07T15:49:52.772Z,7.29
2023-03-07T15:52:37.710Z,7.17
2023-03-07T15:55:20.446Z,7.15
2023-03-07T15:57:56.403Z,7.12
2023-03-07T16:00:35.953Z,7.02
2023-03-07T16:03:28.227Z,6.97
2023-03-07T16:06:01.753Z,6.93
2023-03-07T16:08:34.710Z,6.99
2023-03-07T16:11:08.391Z,6.87
2023-03-07T16:13:43.930Z,6.88
2023-03-07T16:16:24.296Z,6.78
2023-03-07T16:18:57.532Z,6.75
2023-03-07T16:21:30.732Z,6.65
2023-03-07T16:24:03.699Z,6.64
2023-03-07T16:26:35.021Z,6.65
2023-03-07T16:29:05.678Z,6.58
2023-03-07T16:31:36.128Z,6.55
2023-03-07T16:34:06.591Z,6.57
2023-03-07T16:36:37.006Z,6.53
2023-03-07T16:39:10.105Z,6.57
2023-03-07T16:41:41.645Z,6.56
2023-03-07T16:44:19.109Z,6.40
2023-03-07T16:46:57.724Z,6.40
2023-03-07T16:49:28.068Z,6.43
2023-03-07T16:52:05.813Z,6.40
2023-03-07T16:54:39.595Z,6.38
2023-03-07T16:57:15.958Z,6.41
2023-03-07T16:59:49.743Z,6.37
2023-03-07T17:02:22.514Z,6.38
2023-03-07T17:04:52.864Z,6.35
2023-03-07T17:07:26.736Z,6.31
2023-03-07T17:10:01.692Z,6.27
2023-03-07T17:12:32.058Z,6.20
2023-03-07T17:15:02.738Z,6.15
2023-03-07T17:17:36.559Z,6.24
2023-03-07T17:20:08.959Z,6.24
2023-03-07T17:22:40.126Z,6.13
2023-03-07T17:25:13.867Z,6.06
2023-03-07T17:27:47.781Z,6.03
2023-03-07T17:30:23.775Z,6.06
2023-03-07T17:32:55.190Z,6.08
2023-03-07T17:35:26.135Z,6.03
2023-03-07T17:37:56.592Z,5.97
2023-03-07T17:40:29.603Z,5.96
2023-03-07T17:42:59.890Z,5.90
2023-03-07T17:45:30.337Z,5.92
2023-03-07T17:48:00.789Z,5.94
2023-03-07T17:50:31.063Z,5.91
2023-03-07T17:53:01.792Z,5.89
2023-03-07T17:55:34.856Z,5.89
2023-03-07T17:58:05.255Z,5.87
2023-03-07T18:00:35.718Z,5.85
2023-03-07T18:03:06.979Z,5.91
2023-03-07T18:05:37.409Z,5.93
2023-03-07T18:08:07.875Z,5.97
2023-03-07T18:10:40.900Z,5.88
2023-03-07T18:13:11.268Z,5.83
2023-03-07T18:15:41.719Z,5.85
2023-03-07T18:18:12.102Z,5.87
2023-03-07T18:20:42.520Z,5.91
2023-03-07T18:23:12.773Z,5.94
2023-03-07T18:25:45.660Z,5.90
2023-03-07T18:28:16.357Z,5.97
2023-03-07T18:30:47.038Z,6.00
2023-03-07T18:33:17.402Z,6.07
2023-03-07T18:35:48.059Z,5.95
2023-03-07T18:38:18.376Z,5.88
2023-03-07T18:40:53.845Z,5.85
2023-03-07T18:43:24.274Z,5.84
2023-03-07T18:45:54.578Z,5.90
2023-03-07T18:48:24.871Z,5.84
2023-03-07T18:51:00.538Z,5.81
2023-03-07T18:53:31.221Z,5.81
2023-03-07T18:56:06.185Z,5.77
2023-03-07T18:58:37.047Z,5.81
2023-03-07T19:01:16.336Z,5.73
2023-03-07T19:03:48.073Z,5.74
2023-03-07T19:06:21.424Z,5.74
2023-03-07T19:08:51.837Z,5.64
2023-03-07T19:11:25.111Z,5.74
2023-03-07T19:13:55.651Z,5.63
2023-03-07T19:16:28.262Z,5.62
2023-03-07T19:19:00.089Z,5.66
2023-03-07T19:21:32.424Z,5.63
2023-03-07T19:24:07.917Z,5.60
2023-03-07T19:26:42.822Z,5.61
2023-03-07T19:29:13.855Z,5.68
2023-03-07T19:31:45.010Z,5.65
2023-03-07T19:34:15.421Z,5.68
2023-03-07T19:36:45.781Z,5.76
2023-03-07T19:39:20.596Z,5.87
2023-03-07T19:41:53.549Z,5.84
2023-03-07T19:44:24.141Z,6.03
2023-03-07T19:46:54.687Z,6.05
2023-03-07T19:49:26.952Z,6.25
2023-03-07T19:51:57.318Z,6.13
2023-03-07T19:54:27.672Z,6.11
2023-03-07T19:57:01.087Z,6.22
2023-03-07T19:59:31.690Z,6.32
2023-03-07T20:02:02.470Z,6.25
2023-03-07T20:04:33.377Z,6.07
2023-03-07T20:07:04.095Z,5.93
2023-03-07T20:09:35.350Z,5.90
2023-03-07T20:12:10.180Z,5.77
2023-03-07T20:14:43.185Z,5.63
2023-03-07T20:17:14.492Z,5.52
2023-03-07T20:19:45.276Z,5.43
2023-03-07T20:22:15.795Z,5.42
2023-03-07T20:24:46.410Z,5.38
2023-03-07T20:27:21.885Z,5.29
2023-03-07T20:29:52.563Z,5.17
2023-03-07T20:32:23.044Z,5.12
2023-03-07T20:34:56.319Z,5.12
2023-03-07T20:37:27.663Z,5.07
2023-03-07T20:39:58.186Z,5.01
2023-03-07T20:42:31.153Z,4.93
2023-03-07T20:45:01.486Z,4.87
2023-03-07T20:47:32.585Z,4.87
2023-03-07T20:50:02.882Z,4.72
2023-03-07T20:52:33.194Z,4.73
2023-03-07T20:55:05.036Z,4.66
2023-03-07T20:57:37.878Z,4.60
2023-03-07T21:00:10.667Z,4.54
2023-03-07T21:02:40.967Z,4.49
2023-03-07T21:05:12.172Z,4.43
2023-03-07T21:07:42.268Z,4.38
2023-03-07T21:10:15.341Z,4.35
2023-03-07T21:12:48.326Z,4.27
2023-03-07T21:15:18.849Z,4.24
2023-03-07T21:17:51.350Z,4.24
2023-03-07T21:20:22.123Z,4.22
2023-03-07T21:22:52.546Z,4.26
2023-03-07T21:25:22.821Z,4.13
2023-03-07T21:27:55.735Z,4.01
2023-03-07T21:30:26.028Z,4.00
2023-03-07T21:32:58.910Z,4.01
2023-03-07T21:35:29.413Z,4.05
2023-03-07T21:37:59.913Z,3.94
2023-03-07T21:40:30.222Z,3.91
2023-03-07T21:43:03.580Z,3.84
2023-03-07T21:45:35.749Z,3.83
2023-03-07T21:48:06.106Z,3.85
2023-03-07T21:50:37.965Z,3.85
2023-03-07T21:53:08.293Z,3.79
2023-03-07T21:55:38.708Z,3.79
2023-03-07T21:58:11.692Z,3.81
2023-03-07T22:00:42.056Z,3.83
2023-03-07T22:03:12.352Z,3.86
2023-03-07T22:05:43.197Z,3.90
2023-03-07T22:08:16.049Z,3.80
2023-03-07T22:10:47.329Z,3.77
2023-03-07T22:13:19.998Z,3.73
2023-03-07T22:15:50.339Z,3.74
2023-03-07T22:18:21.011Z,3.66
2023-03-07T22:20:51.410Z,3.74
2023-03-07T22:23:21.766Z,3.79
2023-03-07T22:25:52.116Z,3.80
2023-03-07T22:28:25.054Z,3.79
2023-03-07T22:30:55.350Z,3.71
2023-03-07T22:33:25.653Z,3.71
2023-03-07T22:36:00.728Z,3.75
2023-03-07T22:38:31.892Z,3.89
2023-03-07T22:41:06.319Z,3.70
2023-03-07T22:43:39.883Z,3.80
2023-03-07T22:46:10.801Z,3.82
2023-03-07T22:48:41.846Z,3.88
2023-03-07T22:51:17.942Z,3.72
2023-03-07T22:53:49.067Z,3.75
2023-03-07T22:56:22.258Z,3.70
2023-03-07T22:58:55.507Z,3.62
2023-03-07T23:01:28.368Z,3.53
2023-03-07T23:04:00.786Z,3.44
2023-03-07T23:06:33.778Z,3.43
2023-03-07T23:09:04.892Z,3.39
2023-03-07T23:11:36.677Z,3.36
2023-03-07T23:14:09.866Z,3.23
2023-03-07T23:16:41.527Z,3.26
2023-03-07T23:19:12.447Z,3.33
2023-03-07T23:21:42.898Z,3.32
2023-03-07T23:24:14.620Z,3.35
2023-03-07T23:26:45.152Z,3.36
2023-03-07T23:29:18.210Z,3.30
2023-03-07T23:31:48.756Z,3.27
2023-03-07T23:34:22.418Z,3.22
2023-03-07T23:36:52.741Z,3.32
2023-03-07T23:39:23.413Z,3.37
2023-03-07T23:41:54.112Z,3.37
2023-03-07T23:44:27.384Z,3.39
2023-03-07T23:46:57.738Z,3.37
2023-03-07T23:49:28.259Z,3.34
2023-03-07T23:51:58.777Z,3.15
2023-03-07T23:54:29.235Z,2.99
2023-03-07T23:56:59.568Z,2.93
2023-03-07T23:59:32.510Z,2.91
